Main page
METAR-TAF:

METAR-TAF

Airports :

Dundee, Scotland

Dundee Airport

latitude: 56-27N, longitude: 003-01W, elevation: 4 m

Current weather observation

The report was made 36 minutes ago, at 18:20 UTC
Wind 6 kt from the East/Northeast, varying between Northeast and East
Temperature 9°C
Humidity 61%
Pressure 1027 hPa
Visibility 10 km or more
no clouds below 1500 m and no cumulonimbus

METAR: EGPN 261820Z 07006KT 040V100 CAVOK 09/02 Q1027

Time: 19:56 (18:56 UTC)

Forecast

The report was made 1 hour and 53 minutes ago, at 17:03 UTC
Forecast valid from 26 at 18 UTC to 26 at 20 UTC
Wind 3 kt from variable directions
Visibility 10 km or more
no clouds below 1500 m and no cumulonimbus

TAF: EGPN 261703Z 2618/2620 VRB03KT CAVOK

Weather observations and forecasts of more than 4000 airports (METAR and TAF reports).

The available stations are represented by yellow and red dots on the map.

Hover mouse over dot to see the name of the station.

Then click to see weather observations and forecasts.

To change the map : click on the green buttons with a black cross to zoom in, on the green button with a dash to zoom out, or on the green arrows for adjacent maps.


METAR-TAF: